createdAt,value
2023-02-13T00:03:54.914Z,10.14
2023-02-13T00:07:57.346Z,10.11
2023-02-13T00:11:58.867Z,10.15
2023-02-13T00:16:01.995Z,10.27
2023-02-13T00:20:04.568Z,10.48
2023-02-13T00:24:06.267Z,10.29
2023-02-13T00:28:07.727Z,10.67
2023-02-13T00:32:09.437Z,10.47
2023-02-13T00:36:17.580Z,10.18
2023-02-13T00:40:19.731Z,10.41
2023-02-13T00:44:21.188Z,10.20
2023-02-13T00:48:22.657Z,10.14
2023-02-13T00:52:24.175Z,10.15
2023-02-13T00:56:25.635Z,10.32
2023-02-13T01:00:27.388Z,10.17
2023-02-13T01:04:29.046Z,10.24
2023-02-13T01:08:31.828Z,10.25
2023-02-13T01:12:33.270Z,10.18
2023-02-13T01:16:34.755Z,10.09
2023-02-13T01:20:36.183Z,10.07
2023-02-13T01:24:37.655Z,10.18
2023-02-13T01:28:39.168Z,10.10
2023-02-13T01:32:42.300Z,9.95
2023-02-13T01:36:43.777Z,10.02
2023-02-13T01:40:49.635Z,9.92
2023-02-13T01:44:54.088Z,10.00
2023-02-13T01:49:21.167Z,10.04
2023-02-13T01:53:48.452Z,10.15
2023-02-13T01:57:58.105Z,9.81
2023-02-13T02:02:01.177Z,10.05
2023-02-13T02:06:04.519Z,10.08
2023-02-13T02:10:10.189Z,10.04
2023-02-13T02:14:12.810Z,10.17
2023-02-13T02:18:24.471Z,10.20
2023-02-13T02:23:06.207Z,10.03
2023-02-13T02:27:17.786Z,10.17
2023-02-13T02:31:48.982Z,9.95
2023-02-13T02:36:14.817Z,9.96
2023-02-13T02:40:38.483Z,10.07
2023-02-13T02:44:55.679Z,9.83
2023-02-13T02:49:24.417Z,10.00
2023-02-13T02:53:33.406Z,9.95
2023-02-13T02:58:04.030Z,9.77
2023-02-13T03:02:26.939Z,9.84
2023-02-13T03:06:53.056Z,9.98
2023-02-13T03:11:13.269Z,9.87
2023-02-13T03:15:14.691Z,9.90
2023-02-13T03:19:46.152Z,9.68
2023-02-13T03:23:58.649Z,10.07
2023-02-13T03:28:36.025Z,10.10
2023-02-13T03:32:37.460Z,9.89
2023-02-13T03:37:29.585Z,9.82
2023-02-13T03:41:40.698Z,9.94
2023-02-13T03:45:53.653Z,9.84
2023-02-13T03:50:07.139Z,9.75
2023-02-13T03:54:18.395Z,9.79
2023-02-13T03:58:44.478Z,9.73
2023-02-13T04:03:00.695Z,9.66
2023-02-13T04:07:10.629Z,9.96
2023-02-13T04:11:19.593Z,9.96
2023-02-13T04:15:37.311Z,9.84
2023-02-13T04:19:39.057Z,10.01
2023-02-13T04:23:40.549Z,10.06
2023-02-13T04:27:42.239Z,9.92
2023-02-13T04:31:43.779Z,9.86
2023-02-13T04:35:45.409Z,9.94
2023-02-13T04:39:46.843Z,9.95
2023-02-13T04:43:48.885Z,10.14
2023-02-13T04:47:52.634Z,10.10
2023-02-13T04:51:54.087Z,9.95
2023-02-13T04:55:55.560Z,9.91
2023-02-13T04:59:57.074Z,9.97
2023-02-13T05:03:59.061Z,9.93
2023-02-13T05:08:01.299Z,9.97
2023-02-13T05:12:02.820Z,9.81
2023-02-13T05:16:04.824Z,9.77
2023-02-13T05:20:08.002Z,9.63
2023-02-13T05:24:10.320Z,9.66
2023-02-13T05:28:30.679Z,9.67
2023-02-13T05:32:32.207Z,9.58
2023-02-13T05:36:33.730Z,9.72
2023-02-13T05:40:35.181Z,9.68
2023-02-13T05:44:36.736Z,9.55
2023-02-13T05:48:38.408Z,9.75
2023-02-13T05:52:39.868Z,9.55
2023-02-13T05:56:41.573Z,9.52
2023-02-13T06:00:43.040Z,9.58
2023-02-13T06:04:44.461Z,9.77
2023-02-13T06:08:45.915Z,9.70
2023-02-13T06:12:47.319Z,9.80
2023-02-13T06:16:48.855Z,9.94
2023-02-13T06:20:50.567Z,9.69
2023-02-13T06:24:51.974Z,9.89
2023-02-13T06:28:53.413Z,9.93
2023-02-13T06:32:54.907Z,9.92
2023-02-13T06:36:56.832Z,9.78
2023-02-13T06:41:01.284Z,9.62
2023-02-13T06:45:03.485Z,9.61
2023-02-13T06:49:05.057Z,9.64
2023-02-13T06:53:06.552Z,9.45
2023-02-13T06:57:08.002Z,9.51
2023-02-13T07:01:09.548Z,9.71
2023-02-13T07:05:11.714Z,9.59
2023-02-13T07:09:13.542Z,9.67
2023-02-13T07:13:15.203Z,9.68
2023-02-13T07:17:16.654Z,9.90
2023-02-13T07:21:18.069Z,9.65
2023-02-13T07:25:19.567Z,9.67
2023-02-13T07:29:20.974Z,10.00
2023-02-13T07:33:22.633Z,9.54
2023-02-13T07:37:24.189Z,9.68
2023-02-13T07:41:26.840Z,9.83
2023-02-13T07:45:28.485Z,9.94
2023-02-13T07:49:29.927Z,9.91
2023-02-13T07:53:32.211Z,10.02
2023-02-13T07:57:34.152Z,10.06
2023-02-13T08:01:35.570Z,10.09
2023-02-13T08:05:37.220Z,9.94
2023-02-13T08:09:57.262Z,10.35
2023-02-13T08:13:58.708Z,10.01
2023-02-13T08:18:00.265Z,9.90
2023-02-13T08:22:01.789Z,9.79
2023-02-13T08:26:03.290Z,9.81
2023-02-13T08:30:06.799Z,9.94
2023-02-13T08:34:08.621Z,9.80
2023-02-13T08:38:10.077Z,9.71
2023-02-13T08:42:15.224Z,9.90
2023-02-13T08:46:18.181Z,9.90
2023-02-13T08:50:19.734Z,9.76
2023-02-13T08:54:21.178Z,9.84
2023-02-13T08:58:23.641Z,10.07
2023-02-13T09:02:25.083Z,10.03
2023-02-13T09:06:27.505Z,10.00
2023-02-13T09:10:29.650Z,10.06
2023-02-13T09:14:31.135Z,9.89
2023-02-13T09:18:33.462Z,9.79
2023-02-13T09:22:35.097Z,9.90
2023-02-13T09:26:36.695Z,9.97
2023-02-13T09:30:38.179Z,9.88
2023-02-13T09:34:39.682Z,10.07
2023-02-13T09:38:45.667Z,9.98
2023-02-13T09:42:49.300Z,10.15
2023-02-13T09:46:50.931Z,10.00
2023-02-13T09:50:52.423Z,10.01
2023-02-13T09:54:53.841Z,10.07
2023-02-13T09:59:02.829Z,10.21
2023-02-13T10:03:13.000Z,10.36
2023-02-13T10:07:39.368Z,10.22
2023-02-13T10:12:12.909Z,10.22
2023-02-13T10:16:45.488Z,10.20
2023-02-13T10:20:54.396Z,10.19
2023-02-13T10:25:24.979Z,10.30
2023-02-13T10:29:57.174Z,10.10
2023-02-13T10:34:02.840Z,10.16
2023-02-13T10:38:15.676Z,10.50
2023-02-13T10:42:40.070Z,10.49
2023-02-13T10:46:55.337Z,10.29
2023-02-13T10:51:07.549Z,10.24
2023-02-13T10:55:23.352Z,10.31
2023-02-13T10:59:36.743Z,10.41
2023-02-13T11:03:39.286Z,10.43
2023-02-13T11:07:42.327Z,10.29
2023-02-13T11:11:44.001Z,10.48
2023-02-13T11:16:13.742Z,10.30
2023-02-13T11:20:35.796Z,10.30
2023-02-13T11:24:41.431Z,10.24
2023-02-13T11:28:57.857Z,10.57
2023-02-13T11:33:01.514Z,10.24
2023-02-13T11:37:27.598Z,10.27
2023-02-13T11:41:30.907Z,10.48
2023-02-13T11:45:32.516Z,10.39
2023-02-13T11:49:36.835Z,10.16
2023-02-13T11:53:40.032Z,9.99
2023-02-13T11:57:41.481Z,10.27
2023-02-13T12:01:44.353Z,10.11
2023-02-13T12:06:03.036Z,10.23
2023-02-13T12:10:24.020Z,10.11
2023-02-13T12:14:31.374Z,10.29
2023-02-13T12:18:41.570Z,10.40
2023-02-13T12:23:02.973Z,10.17
2023-02-13T12:27:10.219Z,10.24
2023-02-13T12:31:27.848Z,10.20
2023-02-13T12:35:50.865Z,10.34
2023-02-13T12:40:02.675Z,10.21
2023-02-13T12:44:33.570Z,10.16
2023-02-13T12:48:49.983Z,10.01
2023-02-13T12:53:16.334Z,10.09
2023-02-13T12:57:56.073Z,9.95
2023-02-13T13:02:24.122Z,10.25
2023-02-13T13:06:43.843Z,10.01
2023-02-13T13:11:13.330Z,10.12
2023-02-13T13:15:35.078Z,10.28
2023-02-13T13:19:45.524Z,10.40
2023-02-13T13:24:01.013Z,10.42
2023-02-13T13:28:11.921Z,10.28
2023-02-13T13:32:18.816Z,10.16
2023-02-13T13:36:44.893Z,10.21
2023-02-13T13:40:53.619Z,10.29
2023-02-13T13:45:15.168Z,10.43
2023-02-13T13:49:35.442Z,10.39
2023-02-13T13:53:57.571Z,10.27
2023-02-13T13:58:00.288Z,10.32
2023-02-13T14:02:19.693Z,10.27
2023-02-13T14:06:48.007Z,10.34
2023-02-13T14:10:49.380Z,10.15
2023-02-13T14:14:55.374Z,9.87
2023-02-13T14:18:56.866Z,10.02
2023-02-13T14:23:26.971Z,9.90
2023-02-13T14:27:37.172Z,10.07
2023-02-13T14:31:51.942Z,10.18
2023-02-13T14:36:20.766Z,10.07
2023-02-13T14:40:22.346Z,10.35
2023-02-13T14:44:33.614Z,9.90
2023-02-13T14:48:45.952Z,10.19
2023-02-13T14:52:48.229Z,10.06
2023-02-13T14:56:51.723Z,9.84
2023-02-13T15:01:04.764Z,9.92
2023-02-13T15:05:14.937Z,9.83
2023-02-13T15:09:32.759Z,9.92
2023-02-13T15:13:37.447Z,9.66
2023-02-13T15:22:47.068Z,9.41
2023-02-13T15:27:03.032Z,9.35
2023-02-13T15:31:07.783Z,9.29
2023-02-13T15:35:27.292Z,9.11
2023-02-13T15:39:31.926Z,9.05
2023-02-13T15:43:44.739Z,8.71
2023-02-13T15:47:46.798Z,8.94
2023-02-13T15:51:57.749Z,8.88
2023-02-13T15:56:04.828Z,9.04
2023-02-13T16:00:07.539Z,9.12
2023-02-13T16:04:15.548Z,8.88
2023-02-13T16:08:30.958Z,8.77
2023-02-13T16:12:32.465Z,8.63
2023-02-13T16:16:43.938Z,8.80
2023-02-13T16:20:45.614Z,8.75
2023-02-13T16:24:53.616Z,8.71
2023-02-13T16:28:55.768Z,8.83
2023-02-13T16:33:15.611Z,8.70
2023-02-13T16:37:28.068Z,8.73
2023-02-13T16:41:31.805Z,8.71
2023-02-13T16:45:33.675Z,8.70
2023-02-13T16:49:36.867Z,8.76
2023-02-13T16:53:39.517Z,8.82
2023-02-13T16:57:43.347Z,8.71
2023-02-13T17:01:44.999Z,8.42
2023-02-13T17:05:46.495Z,8.71
2023-02-13T17:10:30.900Z,8.68
2023-02-13T17:14:32.327Z,8.70
2023-02-13T17:18:33.825Z,8.58
2023-02-13T17:22:38.138Z,8.47
2023-02-13T17:26:39.588Z,8.50
2023-02-13T17:30:41.898Z,8.38
2023-02-13T17:34:43.438Z,8.19
2023-02-13T17:38:44.876Z,8.22
2023-02-13T17:42:50.355Z,8.18
2023-02-13T17:46:51.814Z,8.28
2023-02-13T17:50:53.353Z,8.34
2023-02-13T17:54:54.874Z,8.46
2023-02-13T17:58:56.309Z,8.41
2023-02-13T18:03:00.408Z,8.74
2023-02-13T18:07:01.799Z,8.66
2023-02-13T18:11:09.608Z,8.69
2023-02-13T18:15:11.399Z,9.09
2023-02-13T18:19:13.921Z,9.09
2023-02-13T18:23:15.353Z,9.08
2023-02-13T18:27:17.467Z,9.03
2023-02-13T18:31:19.497Z,8.97
2023-02-13T18:35:22.550Z,9.14
2023-02-13T18:39:23.989Z,9.24
2023-02-13T18:43:25.546Z,9.39
2023-02-13T18:47:26.988Z,9.26
2023-02-13T18:51:28.415Z,9.16
2023-02-13T18:55:29.844Z,8.79
2023-02-13T18:59:31.293Z,9.02
2023-02-13T19:03:32.732Z,8.97
2023-02-13T19:07:34.196Z,8.80
2023-02-13T19:11:35.792Z,9.04
2023-02-13T19:15:37.316Z,9.23
2023-02-13T19:19:38.920Z,9.15
2023-02-13T19:23:41.172Z,9.05
2023-02-13T19:27:42.688Z,8.98
2023-02-13T19:31:44.243Z,9.16
2023-02-13T19:35:56.996Z,9.10
2023-02-13T19:39:58.482Z,9.17
2023-02-13T19:44:00.918Z,9.12
2023-02-13T19:48:02.431Z,9.29
2023-02-13T19:52:03.902Z,9.14
2023-02-13T19:56:06.961Z,9.27
2023-02-13T20:00:09.453Z,9.24
2023-02-13T20:04:14.267Z,9.21
2023-02-13T20:08:15.673Z,9.37
2023-02-13T20:12:17.172Z,9.45
2023-02-13T20:16:18.817Z,9.38
2023-02-13T20:20:20.430Z,9.31
2023-02-13T20:24:21.955Z,9.38
2023-02-13T20:28:23.360Z,9.42
2023-02-13T20:32:24.818Z,9.34
2023-02-13T20:36:29.659Z,9.32
2023-02-13T20:40:31.264Z,9.11
2023-02-13T20:44:32.814Z,8.90
2023-02-13T20:48:39.149Z,8.82
2023-02-13T20:52:40.728Z,8.65
2023-02-13T20:56:42.165Z,8.74
2023-02-13T21:00:43.671Z,8.97
2023-02-13T21:04:45.281Z,9.05
2023-02-13T21:08:47.006Z,8.97
2023-02-13T21:12:48.428Z,9.21
2023-02-13T21:16:49.936Z,9.43
2023-02-13T21:20:51.506Z,9.53
2023-02-13T21:24:53.067Z,9.18
2023-02-13T21:28:54.958Z,9.13
2023-02-13T21:32:56.371Z,9.11
2023-02-13T21:36:57.768Z,9.18
2023-02-13T21:41:17.481Z,9.15
2023-02-13T21:45:19.055Z,8.91
2023-02-13T21:49:20.634Z,8.90
2023-02-13T21:53:22.122Z,9.20
2023-02-13T21:57:23.627Z,9.20
2023-02-13T22:01:27.814Z,9.07
2023-02-13T22:05:29.254Z,9.17
2023-02-13T22:09:30.818Z,9.09
2023-02-13T22:13:32.226Z,9.11
2023-02-13T22:17:36.693Z,9.07
2023-02-13T22:21:38.173Z,9.17
2023-02-13T22:25:39.595Z,8.84
2023-02-13T22:29:41.007Z,9.02
2023-02-13T22:33:47.428Z,9.18
2023-02-13T22:37:51.259Z,9.03
2023-02-13T22:41:55.782Z,8.96
2023-02-13T22:46:05.979Z,9.02
2023-02-13T22:50:08.025Z,8.79
2023-02-13T22:54:10.270Z,8.94
2023-02-13T22:58:11.916Z,8.81
2023-02-13T23:02:13.376Z,8.75
2023-02-13T23:06:15.876Z,8.63
2023-02-13T23:10:18.912Z,8.86
2023-02-13T23:14:24.672Z,8.70
2023-02-13T23:18:26.111Z,8.61
2023-02-13T23:22:27.545Z,8.60
2023-02-13T23:26:28.982Z,8.62
2023-02-13T23:30:30.976Z,8.44
2023-02-13T23:34:35.112Z,8.45
2023-02-13T23:38:36.938Z,8.30
2023-02-13T23:42:46.099Z,8.49
2023-02-13T23:46:47.780Z,8.77
2023-02-13T23:50:51.016Z,9.06
2023-02-13T23:54:52.450Z,9.02
2023-02-13T23:58:56.528Z,9.04
